Hovedside
METAR-TAF:

METAR-TAF

Lufthavner :

Calvinia, Sør-Afrika

breddegrad: 31-28-56S, lengdegrad: 19-45-43E, høyde over havet: 977 m

Gjeldene værobservasjon

Denne rapporten ble laget for 15 timer og 51 minutter siden, klokken 10:57 UTC
Vind 8 kt fra Øst
Temperatur 19°C
Luftfuktighet 28%
Trykk 1025 hPa
Sikt 10 km eller mer
ingen skyer under 1500 m og ingen bygeskyer

METAR: FACV 131057Z 10008KT CAVOK 19/M00 Q1025

Tid: 04:48 (02:48 UTC)


TAF: fraværende

Værobservasjoner og værvarsel for over 4000 flyplasser (METAR- og TAF-rapporter).

Tilgjengelige stasjoner er representert av de røde og gule prikkene på kartet.

Hold musepekeren over prikken for å se navnet på stasjonen.

Klikk så for å se værobservasjoner og -varsler.

For å forandre kartet kan du klikke på den grønne knappen med svart kryss for å zoome inn, på den grønne knappen med strek for å zoome ut, eller på de grønne pilene for å se tilstøtende kart.


METAR-TAF: